sensor_id;sensor_type;location;lat;lon;timestamp;P1;durP1;ratioP1;P2;durP2;ratioP2
42846;SDS011;28495;49.916;14.536;2022-10-22T00:05:27;23.13;;;13.07;;
42846;SDS011;28495;49.916;14.536;2022-10-22T00:10:48;22.25;;;12.45;;
42846;SDS011;28495;49.916;14.536;2022-10-22T00:16:08;19.17;;;12.10;;
42846;SDS011;28495;49.916;14.536;2022-10-22T00:21:29;22.10;;;13.05;;
42846;SDS011;28495;49.916;14.536;2022-10-22T00:26:50;14.13;;;9.73;;
42846;SDS011;28495;49.916;14.536;2022-10-22T00:32:11;17.10;;;10.60;;
42846;SDS011;28495;49.916;14.536;2022-10-22T00:37:31;18.35;;;10.65;;
42846;SDS011;28495;49.916;14.536;2022-10-22T00:42:52;19.73;;;9.77;;
42846;SDS011;28495;49.916;14.536;2022-10-22T00:48:18;16.38;;;9.70;;
42846;SDS011;28495;49.916;14.536;2022-10-22T00:53:42;13.75;;;8.68;;
42846;SDS011;28495;49.916;14.536;2022-10-22T00:59:07;17.38;;;9.88;;
42846;SDS011;28495;49.916;14.536;2022-10-22T01:04:33;15.98;;;9.57;;
42846;SDS011;28495;49.916;14.536;2022-10-22T01:21:42;21.90;;;12.73;;
42846;SDS011;28495;49.916;14.536;2022-10-22T01:32:38;14.70;;;9.90;;
42846;SDS011;28495;49.916;14.536;2022-10-22T01:38:04;10.70;;;7.93;;
42846;SDS011;28495;49.916;14.536;2022-10-22T01:43:28;18.33;;;10.65;;
42846;SDS011;28495;49.916;14.536;2022-10-22T01:48:55;17.65;;;9.77;;
42846;SDS011;28495;49.916;14.536;2022-10-22T01:54:26;17.07;;;10.63;;
42846;SDS011;28495;49.916;14.536;2022-10-22T01:59:56;17.92;;;10.88;;
42846;SDS011;28495;49.916;14.536;2022-10-22T02:11:01;17.73;;;11.20;;
42846;SDS011;28495;49.916;14.536;2022-10-22T02:16:27;20.05;;;10.90;;
42846;SDS011;28495;49.916;14.536;2022-10-22T02:21:52;19.08;;;11.00;;
42846;SDS011;28495;49.916;14.536;2022-10-22T02:38:35;15.40;;;9.00;;
42846;SDS011;28495;49.916;14.536;2022-10-22T02:43:57;17.83;;;9.15;;
42846;SDS011;28495;49.916;14.536;2022-10-22T02:49:18;20.70;;;10.90;;
42846;SDS011;28495;49.916;14.536;2022-10-22T02:54:38;13.93;;;9.38;;
42846;SDS011;28495;49.916;14.536;2022-10-22T02:59:59;14.10;;;8.73;;
42846;SDS011;28495;49.916;14.536;2022-10-22T03:05:19;16.13;;;9.02;;
42846;SDS011;28495;49.916;14.536;2022-10-22T03:10:40;14.93;;;9.10;;
42846;SDS011;28495;49.916;14.536;2022-10-22T03:16:01;15.65;;;8.55;;
42846;SDS011;28495;49.916;14.536;2022-10-22T03:26:54;13.57;;;9.10;;
42846;SDS011;28495;49.916;14.536;2022-10-22T03:32:15;15.15;;;8.52;;
42846;SDS011;28495;49.916;14.536;2022-10-22T03:37:36;15.05;;;8.85;;
42846;SDS011;28495;49.916;14.536;2022-10-22T03:42:59;12.85;;;8.75;;
42846;SDS011;28495;49.916;14.536;2022-10-22T03:48:19;15.18;;;10.13;;
42846;SDS011;28495;49.916;14.536;2022-10-22T03:53:40;15.20;;;9.18;;
42846;SDS011;28495;49.916;14.536;2022-10-22T03:59:01;15.10;;;9.50;;
42846;SDS011;28495;49.916;14.536;2022-10-22T04:04:22;13.88;;;9.15;;
42846;SDS011;28495;49.916;14.536;2022-10-22T04:09:43;13.30;;;8.43;;
42846;SDS011;28495;49.916;14.536;2022-10-22T04:15:03;14.10;;;8.98;;
42846;SDS011;28495;49.916;14.536;2022-10-22T04:20:25;15.65;;;9.23;;
42846;SDS011;28495;49.916;14.536;2022-10-22T04:25:45;12.02;;;7.60;;
42846;SDS011;28495;49.916;14.536;2022-10-22T04:31:09;15.20;;;8.50;;
42846;SDS011;28495;49.916;14.536;2022-10-22T04:36:31;17.42;;;10.07;;
42846;SDS011;28495;49.916;14.536;2022-10-22T04:41:53;18.83;;;10.00;;
42846;SDS011;28495;49.916;14.536;2022-10-22T04:47:13;17.83;;;9.75;;
42846;SDS011;28495;49.916;14.536;2022-10-22T04:52:34;16.52;;;9.98;;
42846;SDS011;28495;49.916;14.536;2022-10-22T04:57:55;16.95;;;10.15;;
42846;SDS011;28495;49.916;14.536;2022-10-22T05:03:15;19.08;;;10.18;;
42846;SDS011;28495;49.916;14.536;2022-10-22T05:08:36;13.07;;;8.57;;
42846;SDS011;28495;49.916;14.536;2022-10-22T05:13:58;12.40;;;7.18;;
42846;SDS011;28495;49.916;14.536;2022-10-22T05:19:21;16.83;;;10.18;;
42846;SDS011;28495;49.916;14.536;2022-10-22T05:24:46;13.60;;;9.23;;
42846;SDS011;28495;49.916;14.536;2022-10-22T05:30:08;16.63;;;10.30;;
42846;SDS011;28495;49.916;14.536;2022-10-22T05:35:29;15.38;;;9.50;;
42846;SDS011;28495;49.916;14.536;2022-10-22T05:41:03;15.93;;;8.95;;
42846;SDS011;28495;49.916;14.536;2022-10-22T05:46:27;15.68;;;9.57;;
42846;SDS011;28495;49.916;14.536;2022-10-22T05:51:49;14.95;;;9.88;;
42846;SDS011;28495;49.916;14.536;2022-10-22T05:57:10;13.02;;;9.30;;
42846;SDS011;28495;49.916;14.536;2022-10-22T06:02:30;17.90;;;10.38;;
42846;SDS011;28495;49.916;14.536;2022-10-22T06:07:51;14.18;;;8.65;;
42846;SDS011;28495;49.916;14.536;2022-10-22T06:13:12;16.80;;;11.05;;
42846;SDS011;28495;49.916;14.536;2022-10-22T06:18:33;16.13;;;9.82;;
42846;SDS011;28495;49.916;14.536;2022-10-22T06:23:55;16.17;;;9.38;;
42846;SDS011;28495;49.916;14.536;2022-10-22T06:29:17;21.63;;;11.98;;
42846;SDS011;28495;49.916;14.536;2022-10-22T06:34:38;20.65;;;11.68;;
42846;SDS011;28495;49.916;14.536;2022-10-22T06:39:59;16.80;;;10.50;;
42846;SDS011;28495;49.916;14.536;2022-10-22T06:45:20;48.72;;;24.92;;
42846;SDS011;28495;49.916;14.536;2022-10-22T06:50:40;37.67;;;17.60;;
42846;SDS011;28495;49.916;14.536;2022-10-22T06:56:11;44.03;;;21.77;;
42846;SDS011;28495;49.916;14.536;2022-10-22T07:01:34;34.10;;;17.90;;
42846;SDS011;28495;49.916;14.536;2022-10-22T07:06:56;35.25;;;17.00;;
42846;SDS011;28495;49.916;14.536;2022-10-22T07:12:17;18.23;;;11.48;;
42846;SDS011;28495;49.916;14.536;2022-10-22T07:17:38;19.00;;;11.30;;
42846;SDS011;28495;49.916;14.536;2022-10-22T07:22:59;22.33;;;12.82;;
42846;SDS011;28495;49.916;14.536;2022-10-22T07:28:20;36.50;;;16.90;;
42846;SDS011;28495;49.916;14.536;2022-10-22T07:33:41;38.08;;;19.40;;
42846;SDS011;28495;49.916;14.536;2022-10-22T07:39:02;24.35;;;14.43;;
42846;SDS011;28495;49.916;14.536;2022-10-22T07:44:24;25.35;;;16.95;;
42846;SDS011;28495;49.916;14.536;2022-10-22T07:49:44;16.80;;;11.88;;
42846;SDS011;28495;49.916;14.536;2022-10-22T07:55:05;18.77;;;10.63;;
42846;SDS011;28495;49.916;14.536;2022-10-22T08:00:26;11.38;;;8.05;;
42846;SDS011;28495;49.916;14.536;2022-10-22T08:05:47;14.60;;;10.10;;
42846;SDS011;28495;49.916;14.536;2022-10-22T08:11:08;9.93;;;7.10;;
42846;SDS011;28495;49.916;14.536;2022-10-22T08:16:29;16.48;;;9.55;;
42846;SDS011;28495;49.916;14.536;2022-10-22T08:21:50;13.63;;;9.60;;
42846;SDS011;28495;49.916;14.536;2022-10-22T08:27:11;21.88;;;9.85;;
42846;SDS011;28495;49.916;14.536;2022-10-22T08:32:32;15.25;;;9.15;;
42846;SDS011;28495;49.916;14.536;2022-10-22T08:37:52;12.57;;;8.98;;
42846;SDS011;28495;49.916;14.536;2022-10-22T08:49:26;8.95;;;7.38;;
42846;SDS011;28495;49.916;14.536;2022-10-22T08:54:55;10.82;;;7.78;;
42846;SDS011;28495;49.916;14.536;2022-10-22T09:06:12;8.50;;;7.45;;
42846;SDS011;28495;49.916;14.536;2022-10-22T09:11:31;10.45;;;7.40;;
42846;SDS011;28495;49.916;14.536;2022-10-22T09:17:28;8.88;;;6.57;;
42846;SDS011;28495;49.916;14.536;2022-10-22T09:28:11;9.25;;;6.95;;
42846;SDS011;28495;49.916;14.536;2022-10-22T09:33:32;9.10;;;6.80;;
42846;SDS011;28495;49.916;14.536;2022-10-22T09:38:53;11.32;;;8.10;;
42846;SDS011;28495;49.916;14.536;2022-10-22T09:44:16;11.32;;;8.15;;
42846;SDS011;28495;49.916;14.536;2022-10-22T09:49:38;11.77;;;7.35;;
42846;SDS011;28495;49.916;14.536;2022-10-22T09:55:00;10.57;;;7.43;;
42846;SDS011;28495;49.916;14.536;2022-10-22T10:00:22;5.53;;;4.25;;
42846;SDS011;28495;49.916;14.536;2022-10-22T10:05:49;9.45;;;6.47;;
42846;SDS011;28495;49.916;14.536;2022-10-22T10:11:18;10.57;;;6.75;;
42846;SDS011;28495;49.916;14.536;2022-10-22T10:17:03;10.48;;;6.93;;
42846;SDS011;28495;49.916;14.536;2022-10-22T10:28:14;6.68;;;5.45;;
42846;SDS011;28495;49.916;14.536;2022-10-22T10:45:15;11.73;;;7.53;;
42846;SDS011;28495;49.916;14.536;2022-10-22T10:56:54;8.88;;;6.45;;
42846;SDS011;28495;49.916;14.536;2022-10-22T11:02:38;7.20;;;5.63;;
42846;SDS011;28495;49.916;14.536;2022-10-22T11:08:26;10.07;;;7.03;;
42846;SDS011;28495;49.916;14.536;2022-10-22T11:14:02;9.15;;;6.55;;
42846;SDS011;28495;49.916;14.536;2022-10-22T11:30:33;9.93;;;6.57;;
42846;SDS011;28495;49.916;14.536;2022-10-22T11:35:55;10.25;;;7.38;;
42846;SDS011;28495;49.916;14.536;2022-10-22T11:41:26;10.27;;;7.10;;
42846;SDS011;28495;49.916;14.536;2022-10-22T11:46:54;9.27;;;6.63;;
42846;SDS011;28495;49.916;14.536;2022-10-22T11:52:22;8.18;;;6.07;;
42846;SDS011;28495;49.916;14.536;2022-10-22T11:58:01;6.03;;;4.50;;
42846;SDS011;28495;49.916;14.536;2022-10-22T12:03:43;6.65;;;4.63;;
42846;SDS011;28495;49.916;14.536;2022-10-22T12:09:08;8.05;;;5.28;;
42846;SDS011;28495;49.916;14.536;2022-10-22T12:14:37;8.10;;;4.43;;
42846;SDS011;28495;49.916;14.536;2022-10-22T12:20:12;7.68;;;3.60;;
42846;SDS011;28495;49.916;14.536;2022-10-22T12:25:34;7.80;;;3.90;;
42846;SDS011;28495;49.916;14.536;2022-10-22T12:30:57;4.07;;;3.28;;
42846;SDS011;28495;49.916;14.536;2022-10-22T12:36:19;4.35;;;3.03;;
42846;SDS011;28495;49.916;14.536;2022-10-22T12:41:40;3.42;;;2.40;;
42846;SDS011;28495;49.916;14.536;2022-10-22T12:47:01;4.75;;;2.55;;
42846;SDS011;28495;49.916;14.536;2022-10-22T12:52:22;3.22;;;2.45;;
42846;SDS011;28495;49.916;14.536;2022-10-22T12:57:46;6.38;;;2.20;;
42846;SDS011;28495;49.916;14.536;2022-10-22T13:03:09;2.42;;;2.22;;
42846;SDS011;28495;49.916;14.536;2022-10-22T13:30:35;3.22;;;0.90;;
42846;SDS011;28495;49.916;14.536;2022-10-22T13:35:57;2.15;;;1.45;;
42846;SDS011;28495;49.916;14.536;2022-10-22T13:41:20;2.20;;;1.40;;
42846;SDS011;28495;49.916;14.536;2022-10-22T13:46:48;1.70;;;1.60;;
42846;SDS011;28495;49.916;14.536;2022-10-22T13:52:10;3.42;;;1.35;;
42846;SDS011;28495;49.916;14.536;2022-10-22T13:57:41;2.25;;;1.30;;
42846;SDS011;28495;49.916;14.536;2022-10-22T14:03:02;2.15;;;1.15;;
42846;SDS011;28495;49.916;14.536;2022-10-22T14:08:23;1.20;;;1.00;;
42846;SDS011;28495;49.916;14.536;2022-10-22T14:13:46;2.75;;;1.20;;
42846;SDS011;28495;49.916;14.536;2022-10-22T14:19:08;1.42;;;1.10;;
42846;SDS011;28495;49.916;14.536;2022-10-22T14:24:35;4.88;;;1.50;;
42846;SDS011;28495;49.916;14.536;2022-10-22T14:29:56;2.08;;;1.13;;
42846;SDS011;28495;49.916;14.536;2022-10-22T14:35:20;3.15;;;1.40;;
42846;SDS011;28495;49.916;14.536;2022-10-22T14:40:42;1.00;;;0.93;;
42846;SDS011;28495;49.916;14.536;2022-10-22T14:46:04;1.70;;;1.60;;
42846;SDS011;28495;49.916;14.536;2022-10-22T14:51:25;8.82;;;6.32;;
42846;SDS011;28495;49.916;14.536;2022-10-22T14:56:46;1.15;;;1.00;;
42846;SDS011;28495;49.916;14.536;2022-10-22T15:02:11;3.55;;;2.35;;
42846;SDS011;28495;49.916;14.536;2022-10-22T15:07:32;1.75;;;1.65;;
42846;SDS011;28495;49.916;14.536;2022-10-22T15:12:53;1.90;;;1.30;;
42846;SDS011;28495;49.916;14.536;2022-10-22T15:18:14;2.53;;;1.60;;
42846;SDS011;28495;49.916;14.536;2022-10-22T15:23:35;1.98;;;1.52;;
42846;SDS011;28495;49.916;14.536;2022-10-22T15:28:58;3.75;;;1.90;;
42846;SDS011;28495;49.916;14.536;2022-10-22T15:34:22;1.67;;;1.00;;
42846;SDS011;28495;49.916;14.536;2022-10-22T15:39:44;2.35;;;1.30;;
42846;SDS011;28495;49.916;14.536;2022-10-22T15:45:05;1.75;;;1.25;;
42846;SDS011;28495;49.916;14.536;2022-10-22T15:50:28;2.33;;;1.25;;
42846;SDS011;28495;49.916;14.536;2022-10-22T15:55:48;3.30;;;1.70;;
42846;SDS011;28495;49.916;14.536;2022-10-22T16:01:10;2.35;;;1.52;;
42846;SDS011;28495;49.916;14.536;2022-10-22T16:06:39;2.10;;;1.05;;
42846;SDS011;28495;49.916;14.536;2022-10-22T16:12:05;2.60;;;1.13;;
42846;SDS011;28495;49.916;14.536;2022-10-22T16:17:26;2.25;;;1.63;;
42846;SDS011;28495;49.916;14.536;2022-10-22T16:22:48;3.53;;;1.73;;
42846;SDS011;28495;49.916;14.536;2022-10-22T16:28:09;4.18;;;1.60;;
42846;SDS011;28495;49.916;14.536;2022-10-22T16:33:31;1.50;;;1.40;;
42846;SDS011;28495;49.916;14.536;2022-10-22T16:39:05;1.70;;;1.50;;
42846;SDS011;28495;49.916;14.536;2022-10-22T16:44:27;1.63;;;1.20;;
42846;SDS011;28495;49.916;14.536;2022-10-22T16:49:47;2.55;;;1.90;;
42846;SDS011;28495;49.916;14.536;2022-10-22T16:55:08;2.38;;;1.92;;
42846;SDS011;28495;49.916;14.536;2022-10-22T17:00:29;3.22;;;1.58;;
42846;SDS011;28495;49.916;14.536;2022-10-22T17:05:50;1.60;;;0.98;;
42846;SDS011;28495;49.916;14.536;2022-10-22T17:11:11;2.53;;;1.20;;
42846;SDS011;28495;49.916;14.536;2022-10-22T17:16:37;2.42;;;1.23;;
42846;SDS011;28495;49.916;14.536;2022-10-22T17:21:58;1.30;;;1.10;;
42846;SDS011;28495;49.916;14.536;2022-10-22T17:27:18;3.47;;;1.23;;
42846;SDS011;28495;49.916;14.536;2022-10-22T17:32:40;4.80;;;1.45;;
42846;SDS011;28495;49.916;14.536;2022-10-22T17:38:01;2.90;;;1.77;;
42846;SDS011;28495;49.916;14.536;2022-10-22T17:43:22;3.75;;;1.52;;
42846;SDS011;28495;49.916;14.536;2022-10-22T17:48:42;11.68;;;4.10;;
42846;SDS011;28495;49.916;14.536;2022-10-22T17:54:04;4.43;;;1.90;;
42846;SDS011;28495;49.916;14.536;2022-10-22T17:59:30;3.10;;;2.20;;
42846;SDS011;28495;49.916;14.536;2022-10-22T18:04:51;4.07;;;2.67;;
42846;SDS011;28495;49.916;14.536;2022-10-22T18:10:12;4.72;;;2.38;;
42846;SDS011;28495;49.916;14.536;2022-10-22T18:15:33;3.83;;;2.05;;
42846;SDS011;28495;49.916;14.536;2022-10-22T18:20:55;4.22;;;2.35;;
42846;SDS011;28495;49.916;14.536;2022-10-22T18:26:16;9.05;;;5.40;;
42846;SDS011;28495;49.916;14.536;2022-10-22T18:31:42;5.57;;;3.50;;
42846;SDS011;28495;49.916;14.536;2022-10-22T18:37:04;5.07;;;2.70;;
42846;SDS011;28495;49.916;14.536;2022-10-22T18:42:24;7.13;;;2.92;;
42846;SDS011;28495;49.916;14.536;2022-10-22T18:47:53;6.45;;;3.05;;
42846;SDS011;28495;49.916;14.536;2022-10-22T18:53:14;5.75;;;3.22;;
42846;SDS011;28495;49.916;14.536;2022-10-22T18:58:39;4.80;;;3.25;;
42846;SDS011;28495;49.916;14.536;2022-10-22T19:04:01;6.35;;;3.33;;
42846;SDS011;28495;49.916;14.536;2022-10-22T19:09:23;10.20;;;3.28;;
42846;SDS011;28495;49.916;14.536;2022-10-22T19:14:45;5.07;;;3.22;;
42846;SDS011;28495;49.916;14.536;2022-10-22T19:20:08;3.83;;;2.38;;
42846;SDS011;28495;49.916;14.536;2022-10-22T19:25:29;6.88;;;2.88;;
42846;SDS011;28495;49.916;14.536;2022-10-22T19:30:49;8.20;;;3.63;;
42846;SDS011;28495;49.916;14.536;2022-10-22T19:36:11;15.38;;;6.22;;
42846;SDS011;28495;49.916;14.536;2022-10-22T19:41:32;5.40;;;2.92;;
42846;SDS011;28495;49.916;14.536;2022-10-22T19:46:53;6.05;;;3.08;;
42846;SDS011;28495;49.916;14.536;2022-10-22T19:52:14;8.45;;;3.80;;
42846;SDS011;28495;49.916;14.536;2022-10-22T19:57:35;11.10;;;6.32;;
42846;SDS011;28495;49.916;14.536;2022-10-22T20:02:57;8.23;;;3.97;;
42846;SDS011;28495;49.916;14.536;2022-10-22T20:08:19;6.07;;;3.80;;
42846;SDS011;28495;49.916;14.536;2022-10-22T20:13:39;6.72;;;3.88;;
42846;SDS011;28495;49.916;14.536;2022-10-22T20:19:07;7.32;;;3.10;;
42846;SDS011;28495;49.916;14.536;2022-10-22T20:24:28;9.82;;;3.40;;
42846;SDS011;28495;49.916;14.536;2022-10-22T20:29:48;5.68;;;3.10;;
42846;SDS011;28495;49.916;14.536;2022-10-22T20:35:09;4.25;;;2.75;;
42846;SDS011;28495;49.916;14.536;2022-10-22T20:40:30;5.75;;;2.53;;
42846;SDS011;28495;49.916;14.536;2022-10-22T20:45:51;4.10;;;2.33;;
42846;SDS011;28495;49.916;14.536;2022-10-22T20:51:12;3.70;;;2.50;;
42846;SDS011;28495;49.916;14.536;2022-10-22T20:56:36;3.75;;;2.47;;
42846;SDS011;28495;49.916;14.536;2022-10-22T21:01:58;4.50;;;2.72;;
42846;SDS011;28495;49.916;14.536;2022-10-22T21:07:20;3.65;;;2.50;;
42846;SDS011;28495;49.916;14.536;2022-10-22T21:12:41;3.88;;;2.67;;
42846;SDS011;28495;49.916;14.536;2022-10-22T21:18:02;4.32;;;2.40;;
42846;SDS011;28495;49.916;14.536;2022-10-22T21:23:23;7.53;;;2.33;;
42846;SDS011;28495;49.916;14.536;2022-10-22T21:28:44;3.22;;;2.00;;
42846;SDS011;28495;49.916;14.536;2022-10-22T21:34:05;4.25;;;2.20;;
42846;SDS011;28495;49.916;14.536;2022-10-22T21:39:25;7.80;;;3.22;;
42846;SDS011;28495;49.916;14.536;2022-10-22T21:44:46;5.43;;;3.30;;
42846;SDS011;28495;49.916;14.536;2022-10-22T21:50:07;15.70;;;9.98;;
42846;SDS011;28495;49.916;14.536;2022-10-22T21:55:28;16.23;;;8.43;;
42846;SDS011;28495;49.916;14.536;2022-10-22T22:00:54;4.70;;;3.28;;
42846;SDS011;28495;49.916;14.536;2022-10-22T22:06:17;3.90;;;2.58;;
42846;SDS011;28495;49.916;14.536;2022-10-22T22:11:41;5.03;;;2.08;;
42846;SDS011;28495;49.916;14.536;2022-10-22T22:17:02;6.32;;;4.00;;
42846;SDS011;28495;49.916;14.536;2022-10-22T22:22:23;9.40;;;5.22;;
42846;SDS011;28495;49.916;14.536;2022-10-22T22:27:44;6.55;;;2.17;;
42846;SDS011;28495;49.916;14.536;2022-10-22T22:33:04;2.72;;;2.00;;
42846;SDS011;28495;49.916;14.536;2022-10-22T22:38:25;3.42;;;2.40;;
42846;SDS011;28495;49.916;14.536;2022-10-22T22:43:46;4.00;;;2.92;;
42846;SDS011;28495;49.916;14.536;2022-10-22T22:49:06;4.35;;;2.97;;
42846;SDS011;28495;49.916;14.536;2022-10-22T22:54:27;5.28;;;3.08;;
42846;SDS011;28495;49.916;14.536;2022-10-22T22:59:49;4.88;;;3.25;;
42846;SDS011;28495;49.916;14.536;2022-10-22T23:05:10;4.45;;;3.47;;
42846;SDS011;28495;49.916;14.536;2022-10-22T23:10:31;6.13;;;3.10;;
42846;SDS011;28495;49.916;14.536;2022-10-22T23:15:51;6.95;;;2.97;;
42846;SDS011;28495;49.916;14.536;2022-10-22T23:21:13;6.78;;;2.85;;
42846;SDS011;28495;49.916;14.536;2022-10-22T23:26:40;3.72;;;2.95;;
42846;SDS011;28495;49.916;14.536;2022-10-22T23:32:06;5.82;;;2.88;;
42846;SDS011;28495;49.916;14.536;2022-10-22T23:37:31;5.95;;;3.00;;
42846;SDS011;28495;49.916;14.536;2022-10-22T23:42:51;4.05;;;3.03;;
42846;SDS011;28495;49.916;14.536;2022-10-22T23:48:12;5.47;;;2.78;;
42846;SDS011;28495;49.916;14.536;2022-10-22T23:53:33;5.03;;;3.58;;
42846;SDS011;28495;49.916;14.536;2022-10-22T23:58:54;5.50;;;3.72;;
